Time;durP1;ratioP1;P1;durP2;ratioP2;P2;SDS_P1;SDS_P2;PMS_P1;PMS_P2;Temp;Humidity;BMP_temperature;BMP_pressure;BME280_temperature;BME280_humidity;BME280_pressure;Samples;Min_cycle;Max_cycle;Signal;HPM_P1;HPM_P2
2023/04/05 05:31:07;;;;;;;34.70;11.23;;;-2.00;99.90;;;;;;5067096;27;20589;-86
2023/04/05 05:33:33;;;;;;;33.17;11.57;;;-2.10;99.90;;;;;;5066176;28;20190;-86
2023/04/05 05:35:59;;;;;;;23.00;9.13;;;-2.00;99.90;;;;;;5066397;27;20209;-86
2023/04/05 05:38:25;;;;;;;13.83;7.90;;;-1.90;99.90;;;;;;5066665;27;20186;-86
2023/04/05 05:40:57;;;;;;;12.87;7.90;;;-1.90;99.90;;;;;;5067563;28;20166;-87
2023/04/05 05:43:23;;;;;;;16.50;7.10;;;-1.90;99.90;;;;;;5066208;27;20181;-86
2023/04/05 05:45:49;;;;;;;8.90;7.10;;;-1.70;99.90;;;;;;5066194;28;20288;-86
2023/04/05 05:48:15;;;;;;;9.93;6.37;;;-1.60;99.90;;;;;;5066279;28;20195;-86
2023/04/05 05:50:40;;;;;;;7.77;6.40;;;-1.60;99.90;;;;;;5066492;28;20185;-86
2023/04/05 05:53:06;;;;;;;21.67;7.00;;;-1.50;99.90;;;;;;5067766;27;20568;-86
2023/04/05 05:55:32;;;;;;;18.50;7.43;;;-1.40;99.90;;;;;;5066103;28;20229;-86
2023/04/05 05:57:58;;;;;;;16.13;7.03;;;-1.30;99.90;;;;;;5067719;27;20178;-86
2023/04/05 06:00:24;;;;;;;22.67;11.87;;;-1.20;99.90;;;;;;5067305;28;20201;-86
2023/04/05 06:02:51;;;;;;;11.50;8.10;;;-1.20;99.90;;;;;;5066511;28;20189;-86
2023/04/05 06:05:17;;;;;;;8.43;7.10;;;-1.00;99.90;;;;;;5065735;27;20245;-86
2023/04/05 06:07:42;;;;;;;25.97;6.63;;;-0.80;99.90;;;;;;5065965;28;20210;-86
2023/04/05 06:10:08;;;;;;;16.87;6.43;;;-0.60;99.90;;;;;;5066346;27;20263;-86
2023/04/05 06:12:34;;;;;;;36.83;8.43;;;-0.50;99.90;;;;;;5065977;28;20226;-86
2023/04/05 06:15:01;;;;;;;17.13;8.20;;;-0.30;99.90;;;;;;5066140;27;20189;-86
2023/04/05 06:17:27;;;;;;;17.20;9.30;;;-0.20;99.90;;;;;;5065892;28;20221;-86
2023/04/05 06:19:53;;;;;;;14.20;8.40;;;-0.20;99.90;;;;;;5065931;27;20201;-86
2023/04/05 06:22:18;;;;;;;25.80;15.37;;;-0.20;99.90;;;;;;5067186;28;20246;-86
2023/04/05 06:24:44;;;;;;;22.07;14.13;;;-0.10;99.90;;;;;;5065833;28;20170;-86
2023/04/05 06:27:10;;;;;;;37.67;25.10;;;-0.10;99.90;;;;;;5065616;28;20197;-86
2023/04/05 06:29:35;;;;;;;29.33;21.50;;;0.10;99.90;;;;;;5065499;28;20284;-86
2023/04/05 06:32:01;;;;;;;55.83;37.27;;;0.20;99.90;;;;;;5065550;28;20178;-86
2023/04/05 06:34:27;;;;;;;54.07;37.00;;;0.20;99.90;;;;;;5065120;28;20299;-86
2023/04/05 06:36:54;;;;;;;46.50;26.40;;;0.30;99.90;;;;;;5066721;28;20222;-86
2023/04/05 06:39:20;;;;;;;18.33;8.93;;;0.40;99.90;;;;;;5066220;28;20667;-86
2023/04/05 06:41:46;;;;;;;20.17;10.57;;;0.60;99.90;;;;;;5055948;27;20162;-86
2023/04/05 06:44:11;;;;;;;16.37;10.03;;;0.70;99.70;;;;;;5051890;28;20174;-86
2023/04/05 06:46:37;;;;;;;29.73;22.03;;;0.90;99.50;;;;;;5051528;28;20202;-86
2023/04/05 06:49:03;;;;;;;21.47;10.50;;;0.70;99.40;;;;;;5051938;28;20239;-86
2023/04/05 06:51:28;;;;;;;12.90;7.90;;;0.80;99.60;;;;;;5051473;28;20213;-86
2023/04/05 06:53:54;;;;;;;17.47;6.93;;;1.00;99.50;;;;;;5052232;27;20178;-86
2023/04/05 06:56:20;;;;;;;21.70;6.87;;;1.10;99.50;;;;;;5051567;28;20237;-86
2023/04/05 06:58:46;;;;;;;14.80;6.90;;;1.30;99.50;;;;;;5051923;28;20206;-86
2023/04/05 07:01:12;;;;;;;20.87;7.97;;;1.50;99.30;;;;;;5051652;28;20186;-86
2023/04/05 07:03:38;;;;;;;12.60;8.40;;;1.60;99.20;;;;;;5051581;28;20178;-86
2023/04/05 07:06:03;;;;;;;20.30;7.67;;;1.70;99.10;;;;;;5051660;28;20223;-86
2023/04/05 07:08:31;;;;;;;8.20;5.97;;;1.80;99.00;;;;;;5052049;28;20170;-86
2023/04/05 07:10:56;;;;;;;9.27;6.17;;;1.90;98.80;;;;;;5053730;28;20183;-86
2023/04/05 07:13:23;;;;;;;13.20;6.50;;;1.90;99.00;;;;;;5051628;28;20190;-86
2023/04/05 07:15:50;;;;;;;10.00;6.00;;;2.00;99.00;;;;;;5051301;28;20198;-86
2023/04/05 07:18:16;;;;;;;13.83;6.60;;;2.20;99.00;;;;;;5053039;28;20166;-86
2023/04/05 07:20:43;;;;;;;11.27;8.30;;;2.40;98.60;;;;;;5051295;28;20209;-86
2023/04/05 07:23:09;;;;;;;10.47;7.90;;;2.40;98.30;;;;;;5051163;28;20254;-87
2023/04/05 07:25:35;;;;;;;11.67;10.17;;;2.40;98.20;;;;;;5052155;28;20225;-86
2023/04/05 07:28:00;;;;;;;11.10;7.50;;;2.50;98.20;;;;;;5051588;28;20671;-86
2023/04/05 07:30:26;;;;;;;13.77;7.30;;;2.60;98.20;;;;;;5051374;28;20222;-87
2023/04/05 07:32:52;;;;;;;8.63;7.00;;;2.80;97.90;;;;;;5051497;28;20182;-87
2023/04/05 07:35:18;;;;;;;7.70;6.57;;;2.90;97.70;;;;;;5051869;28;20613;-87
2023/04/05 07:41:26;;;;;;;10.40;6.53;;;3.00;97.50;;;;;;5083854;22;20245;-72
2023/04/05 07:44:31;;;;;;;11.37;6.20;;;3.20;97.30;;;;;;5053161;28;20714;-73
2023/04/05 07:47:47;;;;;;;9.20;6.47;;;3.40;97.00;;;;;;5076560;28;20616;-72
2023/04/05 08:11:33;;;;;;;11.70;3.50;;;4.30;88.50;;;;;;4998144;28;20184;-73
2023/04/05 08:53:46;;;;;;;7.15;3.45;;;5.80;73.10;;;;;;5244467;22;20562;-71
2023/04/05 08:57:04;;;;;;;7.40;3.30;;;5.90;74.10;;;;;;5062590;28;20228;-71
2023/04/05 09:04:44;;;;;;;;;;;;;;;;;;;;;
2023/04/05 09:14:25;;;;;;;23.83;4.60;;;6.60;72.20;;;;;;4975238;28;20271;-72
2023/04/05 09:17:56;;;;;;;;;;;;;;;;;;;;;
2023/04/05 09:21:09;;;;;;;12.07;3.90;;;6.60;68.60;;;;;;4995763;28;20220;-73
2023/04/05 09:24:28;;;;;;;5.30;3.50;;;7.00;69.60;;;;;;4989057;28;20191;-72
2023/04/05 09:35:19;;;;;;;80.10;9.05;;;7.40;63.90;;;;;;5292240;22;20241;-73
2023/04/05 09:38:24;;;;;;;7.10;4.95;;;7.20;62.60;;;;;;5054429;28;20210;-73
2023/04/05 09:41:55;;;;;;;8.82;5.53;;;6.70;62.70;;;;;;5045241;28;20692;-73
2023/04/05 09:45:11;;;;;;;;;;;;;;;;;;;;;
2023/04/05 09:52:14;;;;;;;5.20;3.77;;;5.40;66.00;;;;;;5031729;28;20192;-72
2023/04/05 09:55:11;;;;;;;10.85;7.25;;;5.60;65.60;;;;;;5037846;28;20213;-72
2023/04/05 09:58:45;;;;;;;;;;;;;;;;;;;;;
2023/04/05 10:05:21;;;;;;;12.40;4.60;;;6.30;62.60;;;;;;4977636;28;20200;-73
2023/04/05 10:08:37;;;;;;;5.47;3.67;;;6.50;63.60;;;;;;4920155;29;20210;-73
2023/04/05 10:11:34;;;;;;;5.13;3.80;;;6.60;65.70;;;;;;4900374;29;20194;-73
2023/04/05 10:43:05;;;;;;;;;;;;;;;;;;;;;
2023/04/05 10:45:57;;;;;;;4.53;3.90;;;7.30;58.80;;;;;;5031160;28;20269;-73
2023/04/05 10:49:39;;;;;;;6.25;4.00;;;7.50;61.70;;;;;;5038660;28;20202;-73
2023/04/05 11:04:44;;;;;;;6.03;4.80;;;8.40;59.90;;;;;;5038032;28;20229;-72
2023/04/05 11:08:15;;;;;;;7.60;3.45;;;8.20;57.70;;;;;;5050298;28;20271;-72
2023/04/05 11:15:22;;;;;;;4.00;3.60;;;8.30;60.60;;;;;;4918394;29;20207;-72
2023/04/05 11:25:21;;;;;;;3.83;3.42;;;8.20;58.20;;;;;;4934171;28;20193;-71
2023/04/05 11:27:59;;;;;;;4.65;4.00;;;7.60;57.00;;;;;;5015796;28;20214;-72
2023/04/05 11:30:47;;;;;;;7.68;3.97;;;7.50;57.80;;;;;;5034291;28;20170;-71
2023/04/05 11:33:53;;;;;;;4.97;3.53;;;7.60;61.30;;;;;;5037253;28;20328;-72
2023/04/05 11:36:40;;;;;;;10.88;4.10;;;7.80;62.00;;;;;;5053155;28;20198;-71
2023/04/05 11:39:21;;;;;;;6.63;4.13;;;8.00;62.60;;;;;;5051144;28;20175;-71
2023/04/05 11:41:54;;;;;;;6.18;4.03;;;8.20;62.00;;;;;;5052284;28;20220;-72
2023/04/05 11:44:22;;;;;;;26.00;4.18;;;8.40;60.40;;;;;;5049106;28;20174;-72
2023/04/05 11:46:48;;;;;;;4.40;3.60;;;8.40;60.80;;;;;;5053712;28;20194;-72
2023/04/05 11:49:14;;;;;;;75.90;10.02;;;8.50;61.20;;;;;;5052586;28;20224;-72
2023/04/05 11:51:47;;;;;;;395.35;37.38;;;8.60;60.50;;;;;;5052847;28;20189;-73
2023/04/05 11:54:13;;;;;;;86.75;11.85;;;8.70;59.40;;;;;;5052788;28;20185;-72
2023/04/05 11:56:39;;;;;;;13.05;5.22;;;8.60;58.60;;;;;;5053748;28;20244;-72
2023/04/05 11:59:12;;;;;;;17.00;4.78;;;8.60;59.00;;;;;;5053537;28;20282;-72
2023/04/05 12:01:42;;;;;;;7.03;4.00;;;8.50;57.60;;;;;;5053274;28;20166;-72
2023/04/05 12:04:08;;;;;;;7.18;4.18;;;8.70;60.90;;;;;;5052714;28;20554;-73
2023/04/05 12:06:33;;;;;;;9.43;4.28;;;8.70;57.60;;;;;;5053077;28;20190;-72
2023/04/05 12:08:59;;;;;;;6.50;3.40;;;8.60;57.70;;;;;;5040816;28;20190;-72
2023/04/05 12:11:26;;;;;;;6.20;3.45;;;8.60;58.10;;;;;;5056971;28;20712;-72
2023/04/05 12:13:57;;;;;;;9.40;3.80;;;8.60;58.40;;;;;;5055360;28;20178;-72
2023/04/05 12:16:23;;;;;;;4.40;3.20;;;8.80;59.40;;;;;;5054162;28;20182;-72
2023/04/05 12:18:54;;;;;;;4.00;3.63;;;8.90;57.00;;;;;;5052053;28;20196;-72
2023/04/05 12:21:20;;;;;;;5.90;3.47;;;8.90;55.70;;;;;;5051571;28;20229;-72
2023/04/05 12:23:46;;;;;;;6.03;3.30;;;8.90;56.50;;;;;;5056253;28;20185;-72
2023/04/05 12:26:12;;;;;;;6.38;3.65;;;8.80;54.30;;;;;;5056426;28;20194;-72
2023/04/05 12:28:57;;;;;;;4.75;3.90;;;8.80;56.60;;;;;;5057675;28;20197;-72
2023/04/05 12:31:42;;;;;;;4.03;3.63;;;8.80;55.60;;;;;;5053530;28;20180;-72
2023/04/05 12:34:09;;;;;;;4.22;3.30;;;8.60;55.00;;;;;;5055081;28;20205;-72
2023/04/05 12:36:35;;;;;;;3.88;3.38;;;8.70;55.30;;;;;;5056864;28;20619;-72
2023/04/05 12:39:05;;;;;;;6.93;4.00;;;8.70;56.00;;;;;;5056220;28;20197;-72
2023/04/05 12:41:32;;;;;;;9.27;4.70;;;8.70;55.90;;;;;;5056632;28;20166;-72
2023/04/05 12:44:03;;;;;;;4.72;3.50;;;8.80;57.70;;;;;;5056786;28;20196;-72
2023/04/05 12:46:43;;;;;;;5.47;3.70;;;8.80;56.60;;;;;;5056945;28;20201;-72
2023/04/05 12:49:14;;;;;;;3.92;3.53;;;8.60;56.80;;;;;;5056052;28;20177;-72
2023/04/05 12:51:45;;;;;;;3.28;3.08;;;8.80;59.10;;;;;;5053249;28;20656;-72
2023/04/05 12:54:19;;;;;;;4.15;3.65;;;8.80;57.70;;;;;;5051523;28;20241;-72
2023/04/05 12:56:44;;;;;;;3.95;3.65;;;8.80;57.00;;;;;;5049422;28;20190;-72
2023/04/05 12:59:10;;;;;;;6.38;4.10;;;8.60;56.30;;;;;;5054757;28;20269;-72
2023/04/05 13:01:37;;;;;;;4.03;3.35;;;8.60;56.90;;;;;;5055494;28;20178;-72
2023/04/05 13:04:04;;;;;;;3.75;3.35;;;8.50;55.90;;;;;;5051796;28;20182;-72
2023/04/05 13:06:30;;;;;;;7.72;3.33;;;8.30;55.60;;;;;;5045452;28;20202;-72
2023/04/05 13:08:56;;;;;;;4.38;3.30;;;8.30;56.30;;;;;;5036668;28;20203;-72
2023/04/05 13:11:22;;;;;;;5.18;3.45;;;8.30;56.40;;;;;;5064844;28;20254;-72
2023/04/05 13:13:48;;;;;;;3.55;3.25;;;8.40;56.20;;;;;;5056724;28;20182;-73
2023/04/05 13:16:19;;;;;;;66.80;8.45;;;8.40;56.00;;;;;;5057209;28;20198;-72
2023/04/05 13:18:45;;;;;;;283.30;29.45;;;8.60;55.20;;;;;;5056975;28;20193;-72
2023/04/05 13:21:11;;;;;;;308.58;33.25;;;8.50;55.10;;;;;;5057241;28;20198;-72
2023/04/05 13:23:38;;;;;;;49.92;7.18;;;8.60;55.70;;;;;;5055681;28;20178;-72
2023/04/05 13:26:04;;;;;;;12.35;4.07;;;8.70;56.90;;;;;;5055881;28;20210;-72
2023/04/05 13:28:30;;;;;;;12.45;3.92;;;8.90;56.40;;;;;;5056705;28;20185;-72
2023/04/05 13:30:56;;;;;;;4.25;3.17;;;8.90;56.00;;;;;;5058039;28;20190;-73
2023/04/05 13:33:21;;;;;;;4.10;3.25;;;9.00;56.00;;;;;;5057411;28;20559;-73
2023/04/05 13:35:47;;;;;;;4.40;3.20;;;8.90;55.70;;;;;;5058786;28;20198;-73
2023/04/05 13:38:13;;;;;;;13.45;4.10;;;8.90;54.80;;;;;;5059126;28;20174;-73
2023/04/05 13:40:38;;;;;;;77.03;10.52;;;8.90;55.90;;;;;;5057479;28;20564;-73
2023/04/05 13:43:04;;;;;;;197.20;24.33;;;9.00;55.10;;;;;;5057159;28;20216;-73
2023/04/05 13:45:33;;;;;;;96.88;12.15;;;8.90;54.60;;;;;;5057991;28;20170;-73
2023/04/05 13:47:59;;;;;;;30.95;6.75;;;8.90;55.60;;;;;;5058360;28;20189;-73
2023/04/05 13:50:24;;;;;;;38.40;7.22;;;8.90;56.70;;;;;;5057496;28;20174;-73
2023/04/05 13:52:51;;;;;;;12.68;4.95;;;9.00;56.90;;;;;;5062033;28;20185;-72
2023/04/05 13:55:17;;;;;;;7.35;4.20;;;9.00;55.90;;;;;;5063103;28;20182;-72
2023/04/05 13:57:43;;;;;;;14.70;4.38;;;9.00;55.90;;;;;;5061630;28;20204;-72
2023/04/05 14:00:09;;;;;;;12.77;4.13;;;9.00;56.00;;;;;;5062270;28;20209;-72
2023/04/05 14:02:35;;;;;;;13.88;3.80;;;8.80;54.40;;;;;;5062085;28;20185;-72
2023/04/05 14:05:01;;;;;;;8.90;3.65;;;8.80;54.20;;;;;;5061833;28;20170;-72
2023/04/05 14:07:27;;;;;;;4.88;3.60;;;8.80;55.00;;;;;;5062641;28;20198;-72
2023/04/05 14:09:52;;;;;;;4.55;3.70;;;8.70;53.00;;;;;;5062244;28;20208;-73
2023/04/05 14:12:18;;;;;;;6.60;3.88;;;8.60;53.30;;;;;;5064027;28;20189;-73
2023/04/05 14:14:44;;;;;;;5.00;3.30;;;8.70;55.80;;;;;;5063000;28;20187;-72
2023/04/05 14:17:11;;;;;;;5.88;3.28;;;8.70;55.80;;;;;;5061381;28;20289;-72
2023/04/05 14:19:37;;;;;;;7.90;3.30;;;8.80;56.90;;;;;;5060547;28;20232;-73
2023/04/05 14:22:03;;;;;;;4.85;3.30;;;9.00;56.60;;;;;;5060129;28;20551;-73
2023/04/05 14:24:29;;;;;;;3.60;3.13;;;8.90;55.70;;;;;;5060637;28;20186;-73
2023/04/05 14:26:55;;;;;;;5.93;3.15;;;8.90;54.00;;;;;;5061124;28;20198;-73
2023/04/05 14:29:21;;;;;;;3.80;3.05;;;8.70;54.70;;;;;;5060293;28;20179;-73
2023/04/05 14:31:47;;;;;;;3.38;3.08;;;8.60;53.70;;;;;;5062131;28;20197;-73
2023/04/05 14:34:13;;;;;;;3.22;2.92;;;8.40;52.90;;;;;;5060400;28;20221;-74
2023/04/05 14:36:39;;;;;;;5.20;3.00;;;8.30;53.50;;;;;;5060474;28;20739;-72
2023/04/05 14:39:04;;;;;;;3.60;3.08;;;8.30;53.70;;;;;;5060717;28;20257;-73
2023/04/05 14:41:30;;;;;;;4.72;3.35;;;8.20;53.00;;;;;;5059900;28;20228;-73
2023/04/05 14:43:56;;;;;;;6.82;3.40;;;8.10;53.20;;;;;;5058475;28;20540;-73
2023/04/05 14:46:22;;;;;;;3.88;3.20;;;8.00;52.80;;;;;;5059671;28;20197;-72
2023/04/05 14:48:47;;;;;;;9.57;3.60;;;8.00;53.80;;;;;;5059110;28;20182;-72
2023/04/05 14:51:13;;;;;;;6.63;3.30;;;8.10;54.40;;;;;;5059329;28;20174;-72
2023/04/05 14:53:39;;;;;;;4.13;3.30;;;8.10;53.60;;;;;;5058038;28;20178;-72
2023/04/05 14:56:05;;;;;;;5.20;3.20;;;8.10;53.00;;;;;;5057385;28;20293;-72
2023/04/05 14:58:32;;;;;;;3.40;3.10;;;8.20;54.00;;;;;;5057398;28;20202;-74
2023/04/05 15:00:58;;;;;;;6.65;3.72;;;8.10;52.80;;;;;;5057764;28;20323;-73
2023/04/05 15:03:24;;;;;;;4.60;3.65;;;8.10;53.00;;;;;;5057244;28;20174;-73
2023/04/05 15:05:49;;;;;;;4.63;3.13;;;8.10;51.40;;;;;;5057161;28;20198;-73
2023/04/05 15:08:15;;;;;;;3.45;3.15;;;7.90;51.00;;;;;;5056915;28;20178;-73
2023/04/05 15:10:41;;;;;;;5.47;3.00;;;7.80;51.80;;;;;;5058415;28;20177;-73
2023/04/05 15:13:07;;;;;;;4.93;3.03;;;7.80;53.10;;;;;;5056393;28;20178;-73
2023/04/05 15:15:33;;;;;;;4.28;2.95;;;7.80;51.90;;;;;;5056563;28;20183;-73
2023/04/05 15:17:59;;;;;;;5.25;2.88;;;7.80;52.10;;;;;;5056799;28;20231;-73
2023/04/05 15:20:25;;;;;;;3.33;2.92;;;7.80;52.10;;;;;;5057354;28;20210;-73
2023/04/05 15:22:51;;;;;;;5.05;3.15;;;7.80;52.30;;;;;;5056853;28;20179;-73
2023/04/05 15:25:16;;;;;;;5.40;3.53;;;7.90;52.10;;;;;;5056479;28;20174;-73
2023/04/05 15:27:42;;;;;;;4.88;3.40;;;7.80;52.00;;;;;;5056498;28;20248;-73
2023/04/05 15:30:08;;;;;;;21.50;19.05;;;7.80;53.30;;;;;;5056094;28;20277;-73
2023/04/05 15:32:34;;;;;;;5.20;4.68;;;7.90;53.70;;;;;;5057060;28;20640;-73
2023/04/05 15:35:00;;;;;;;4.38;3.35;;;7.80;53.90;;;;;;5056943;28;20209;-73
2023/04/05 15:37:26;;;;;;;4.93;3.47;;;7.70;53.40;;;;;;5057230;28;20768;-73
2023/04/05 15:39:52;;;;;;;4.50;4.10;;;7.60;54.80;;;;;;5059143;28;20198;-73
2023/04/05 15:42:20;;;;;;;4.00;3.40;;;7.60;54.40;;;;;;5057023;28;20182;-73
2023/04/05 15:44:46;;;;;;;5.15;3.67;;;7.60;54.30;;;;;;5057070;28;20185;-73
2023/04/05 15:47:12;;;;;;;5.07;3.47;;;7.60;54.10;;;;;;5056381;28;20566;-73
2023/04/05 15:49:37;;;;;;;7.40;5.40;;;7.50;53.10;;;;;;5056388;28;20175;-73
2023/04/05 15:52:03;;;;;;;4.25;3.85;;;7.50;54.40;;;;;;5057263;28;20185;-73
2023/04/05 15:54:29;;;;;;;5.75;3.88;;;7.50;54.20;;;;;;5055689;28;20185;-73
2023/04/05 15:56:55;;;;;;;6.05;3.30;;;7.50;53.60;;;;;;5056393;28;20206;-73
2023/04/05 15:59:21;;;;;;;5.07;3.75;;;7.40;51.90;;;;;;5056533;28;20514;-74
2023/04/05 16:01:47;;;;;;;6.82;4.35;;;7.40;52.20;;;;;;5056716;28;20294;-73
2023/04/05 16:04:12;;;;;;;5.15;3.88;;;7.40;54.10;;;;;;5056122;28;20171;-73
2023/04/05 16:06:38;;;;;;;4.10;3.42;;;7.30;53.80;;;;;;5056320;28;20252;-73
2023/04/05 16:09:04;;;;;;;4.35;3.47;;;7.40;53.70;;;;;;5055887;28;20197;-73
2023/04/05 16:11:30;;;;;;;9.18;3.60;;;7.30;53.50;;;;;;5056275;28;20178;-74
2023/04/05 16:13:56;;;;;;;5.38;3.13;;;7.30;54.60;;;;;;5056549;28;20235;-73
2023/04/05 16:16:23;;;;;;;4.03;3.20;;;7.20;55.90;;;;;;5056727;28;20289;-72
2023/04/05 16:18:49;;;;;;;6.22;3.53;;;7.20;55.20;;;;;;5053381;28;20243;-72
2023/04/05 16:21:15;;;;;;;5.72;3.40;;;7.10;55.40;;;;;;5053585;28;20209;-72
2023/04/05 16:23:44;;;;;;;9.57;3.47;;;7.10;56.10;;;;;;5053567;28;20185;-72
2023/04/05 16:26:10;;;;;;;5.75;3.42;;;7.00;57.30;;;;;;5053406;28;20194;-72
2023/04/05 16:28:35;;;;;;;9.50;4.05;;;7.00;57.40;;;;;;5053255;28;20205;-72
2023/04/05 16:31:01;;;;;;;5.45;3.80;;;7.00;57.80;;;;;;5053170;28;20241;-72
2023/04/05 16:33:27;;;;;;;6.75;3.45;;;7.00;58.10;;;;;;5053057;28;20177;-72
2023/04/05 16:35:52;;;;;;;3.75;3.35;;;7.00;58.20;;;;;;5052888;28;20690;-72
2023/04/05 16:38:18;;;;;;;4.25;3.60;;;7.00;59.20;;;;;;5054193;28;20265;-72
2023/04/05 16:40:44;;;;;;;4.80;3.58;;;7.10;56.80;;;;;;5054283;28;20229;-72
2023/04/05 16:43:10;;;;;;;3.55;3.22;;;7.10;56.90;;;;;;5054240;28;20174;-72
2023/04/05 16:45:36;;;;;;;5.65;3.80;;;7.10;57.60;;;;;;5052747;28;20178;-72
2023/04/05 16:48:02;;;;;;;4.63;3.35;;;7.10;58.10;;;;;;5052773;28;20232;-72
2023/04/05 16:50:28;;;;;;;7.70;3.50;;;7.00;58.00;;;;;;5054120;28;20277;-72
2023/04/05 16:52:54;;;;;;;3.72;3.10;;;7.00;57.70;;;;;;5053847;28;20210;-72
2023/04/05 16:55:20;;;;;;;5.82;3.55;;;6.90;56.80;;;;;;5053710;28;20182;-71
2023/04/05 16:57:45;;;;;;;5.32;3.60;;;6.80;58.10;;;;;;5048883;28;20241;-72
2023/04/05 17:00:12;;;;;;;4.43;3.45;;;6.70;60.70;;;;;;5052475;28;20701;-71
2023/04/05 17:02:37;;;;;;;3.88;3.50;;;6.70;60.10;;;;;;5052231;28;20182;-72
2023/04/05 17:05:04;;;;;;;4.45;3.83;;;6.60;60.20;;;;;;5052365;28;20553;-71
2023/04/05 17:07:29;;;;;;;3.88;3.47;;;6.50;60.20;;;;;;5052526;28;20232;-71
2023/04/05 17:09:56;;;;;;;4.13;3.42;;;6.50;62.20;;;;;;5047340;28;20249;-72
2023/04/05 17:12:22;;;;;;;4.40;3.83;;;6.40;61.90;;;;;;5039516;28;20557;-71
2023/04/05 17:14:48;;;;;;;5.22;3.55;;;6.30;62.00;;;;;;5032485;28;20174;-73
2023/04/05 17:17:13;;;;;;;4.35;3.70;;;6.20;62.30;;;;;;5033280;28;20210;-72
2023/04/05 17:19:39;;;;;;;9.93;3.53;;;6.10;62.70;;;;;;5051540;28;20301;-73
2023/04/05 17:22:05;;;;;;;3.97;3.17;;;6.00;62.60;;;;;;5052226;28;20181;-73
2023/04/05 17:24:38;;;;;;;3.42;3.10;;;5.90;62.60;;;;;;5052252;28;20170;-73
2023/04/05 17:27:04;;;;;;;6.82;3.88;;;5.80;63.40;;;;;;5049226;28;20735;-73
2023/04/05 17:29:30;;;;;;;5.15;3.65;;;5.70;63.40;;;;;;5045447;28;20293;-72
2023/04/05 17:31:56;;;;;;;6.28;3.75;;;5.70;63.70;;;;;;5052193;28;20286;-72
2023/04/05 17:34:22;;;;;;;4.05;3.40;;;5.60;64.10;;;;;;5051834;28;20198;-73
2023/04/05 17:36:47;;;;;;;3.95;3.33;;;5.50;64.40;;;;;;5052690;28;20202;-72
2023/04/05 17:39:14;;;;;;;16.17;4.03;;;5.40;64.60;;;;;;5052070;28;20250;-73
2023/04/05 17:41:40;;;;;;;17.15;3.97;;;5.40;65.80;;;;;;5053477;28;20245;-73
2023/04/05 17:44:06;;;;;;;16.55;4.22;;;5.30;66.30;;;;;;5052295;28;20198;-73
2023/04/05 17:46:32;;;;;;;25.40;4.13;;;5.30;66.80;;;;;;5052526;28;20248;-72
2023/04/05 17:48:57;;;;;;;21.40;4.13;;;5.30;67.20;;;;;;5052283;28;20190;-72
2023/04/05 17:51:23;;;;;;;13.80;3.83;;;5.30;67.90;;;;;;5051755;28;20186;-73
2023/04/05 17:53:49;;;;;;;20.85;4.28;;;5.30;68.60;;;;;;5049796;28;20178;-72
2023/04/05 17:56:14;;;;;;;24.05;4.13;;;5.30;69.10;;;;;;5047857;28;20247;-72
2023/04/05 17:58:40;;;;;;;20.45;3.92;;;5.30;69.00;;;;;;5041996;28;20198;-72
2023/04/05 18:01:11;;;;;;;9.52;3.40;;;5.30;68.90;;;;;;5044220;28;20203;-72
2023/04/05 18:03:36;;;;;;;8.80;3.08;;;5.30;70.30;;;;;;5052777;28;20171;-73
2023/04/05 18:06:02;;;;;;;11.20;3.47;;;5.30;68.40;;;;;;5051262;28;20205;-72
2023/04/05 18:08:29;;;;;;;7.85;4.00;;;5.20;69.80;;;;;;5053331;28;20261;-72
2023/04/05 18:10:56;;;;;;;4.70;3.80;;;5.20;71.00;;;;;;5052149;28;20173;-72
2023/04/05 18:13:22;;;;;;;8.43;3.85;;;5.20;76.30;;;;;;5052585;28;20546;-72
2023/04/05 18:15:52;;;;;;;7.85;3.72;;;5.20;78.00;;;;;;5053223;28;20205;-73
2023/04/05 18:18:17;;;;;;;6.82;4.50;;;5.20;78.10;;;;;;5052651;28;20516;-73
2023/04/05 18:20:43;;;;;;;7.78;4.28;;;5.20;78.30;;;;;;5052946;28;20186;-72
2023/04/05 18:23:08;;;;;;;7.38;4.15;;;5.20;77.20;;;;;;5053167;28;20170;-73
2023/04/05 18:25:34;;;;;;;8.75;4.22;;;5.20;78.40;;;;;;5051390;28;20180;-73
2023/04/05 18:28:00;;;;;;;5.82;4.32;;;5.20;79.00;;;;;;5052925;28;20163;-73
2023/04/05 18:30:25;;;;;;;8.75;5.22;;;5.20;79.50;;;;;;5051598;28;20182;-72
2023/04/05 18:32:51;;;;;;;8.65;5.90;;;5.20;76.40;;;;;;5051671;28;20216;-73
2023/04/05 18:35:17;;;;;;;5.53;3.58;;;5.20;75.40;;;;;;5052788;28;20177;-73
2023/04/05 18:37:42;;;;;;;17.42;3.42;;;5.10;74.90;;;;;;5052396;28;20732;-73
2023/04/05 18:40:08;;;;;;;4.28;3.35;;;5.10;76.50;;;;;;5055453;28;20201;-73
2023/04/05 18:42:35;;;;;;;3.97;3.57;;;5.00;77.60;;;;;;5055468;28;20268;-73
2023/04/05 18:45:01;;;;;;;3.90;3.27;;;5.00;78.20;;;;;;5055139;28;20174;-73
2023/04/05 18:47:27;;;;;;;3.83;3.43;;;4.90;78.40;;;;;;5056415;28;20253;-73
2023/04/05 18:49:53;;;;;;;7.68;5.25;;;4.90;77.30;;;;;;5055143;28;20573;-73
2023/04/05 18:52:24;;;;;;;7.17;4.60;;;5.00;76.80;;;;;;5055836;28;20231;-73
2023/04/05 18:54:50;;;;;;;6.27;5.33;;;5.00;76.00;;;;;;5055820;28;20174;-73
2023/04/05 18:57:16;;;;;;;5.03;4.53;;;5.00;76.50;;;;;;5055199;28;20202;-73
2023/04/05 18:59:42;;;;;;;6.57;4.70;;;5.00;75.90;;;;;;5055023;28;20194;-73
2023/04/05 19:02:07;;;;;;;9.17;4.23;;;5.00;74.70;;;;;;5054752;28;20182;-73
2023/04/05 19:04:33;;;;;;;10.13;5.03;;;4.90;74.40;;;;;;5054876;28;20290;-73
2023/04/05 19:06:58;;;;;;;7.20;5.63;;;4.90;75.80;;;;;;5055123;28;20194;-73
2023/04/05 19:09:25;;;;;;;8.87;5.23;;;4.90;77.00;;;;;;5055030;28;20190;-74
2023/04/05 19:11:52;;;;;;;8.83;4.90;;;4.90;77.60;;;;;;5054956;28;20269;-73
2023/04/05 19:14:18;;;;;;;8.47;5.93;;;4.90;77.40;;;;;;5034984;28;20313;-72
2023/04/05 19:16:43;;;;;;;10.07;6.20;;;4.90;77.40;;;;;;5034802;28;20195;-73
2023/04/05 19:19:09;;;;;;;8.53;5.53;;;4.90;77.60;;;;;;5034473;28;20217;-73
2023/04/05 19:21:35;;;;;;;12.95;5.38;;;4.90;78.20;;;;;;5035908;28;20203;-73
2023/04/05 19:24:13;;;;;;;9.05;5.68;;;4.90;78.50;;;;;;5035329;28;20197;-72
2023/04/05 19:26:42;;;;;;;6.38;5.53;;;4.90;78.90;;;;;;5054234;28;20209;-72
2023/04/05 19:29:08;;;;;;;8.60;5.78;;;4.90;79.20;;;;;;5049053;28;20194;-72
2023/04/05 19:32:12;;;;;;;9.00;4.93;;;4.80;79.30;;;;;;5034347;28;20179;-71
2023/04/05 19:34:38;;;;;;;6.57;5.20;;;4.70;78.90;;;;;;5034215;28;20162;-72
2023/04/05 19:37:03;;;;;;;12.13;6.70;;;4.70;79.20;;;;;;5035270;28;20206;-71
2023/04/05 19:39:29;;;;;;;7.75;5.90;;;4.70;79.30;;;;;;5034135;28;20684;-71
2023/04/05 19:41:56;;;;;;;9.97;8.00;;;4.70;79.80;;;;;;5034109;28;20181;-71
2023/04/05 19:44:46;;;;;;;13.27;7.85;;;4.70;80.50;;;;;;5035242;28;20167;-72
2023/04/05 19:47:13;;;;;;;10.23;6.97;;;4.60;81.30;;;;;;5033971;28;20218;-71
2023/04/05 19:49:41;;;;;;;22.30;15.47;;;4.60;81.70;;;;;;5033849;28;20270;-72
2023/04/05 19:52:10;;;;;;;23.70;14.63;;;4.60;82.50;;;;;;5035010;28;20220;-71
2023/04/05 19:54:35;;;;;;;15.53;10.73;;;4.60;81.90;;;;;;5034193;28;20190;-71
2023/04/05 19:57:04;;;;;;;15.80;8.60;;;4.60;82.10;;;;;;5033705;28;20198;-71
2023/04/05 19:59:36;;;;;;;12.80;6.73;;;4.60;82.70;;;;;;5034007;28;20281;-71
2023/04/05 20:02:12;;;;;;;9.27;6.60;;;4.50;84.00;;;;;;5034317;28;20609;-71
2023/04/05 20:04:38;;;;;;;10.13;4.97;;;4.50;84.70;;;;;;5033768;28;20189;-71
2023/04/05 20:07:07;;;;;;;5.57;4.57;;;4.30;86.90;;;;;;5033492;28;20195;-71
2023/04/05 20:09:36;;;;;;;7.87;5.00;;;4.30;87.70;;;;;;5033776;28;20195;-72
2023/04/05 20:12:04;;;;;;;7.23;4.60;;;4.30;87.40;;;;;;5050529;28;20186;-71
2023/04/05 20:14:40;;;;;;;4.63;3.90;;;4.20;88.10;;;;;;5053275;28;20185;-71
2023/04/05 20:17:06;;;;;;;5.53;3.53;;;4.30;87.10;;;;;;5052499;28;20232;-71
2023/04/05 20:19:32;;;;;;;5.20;3.60;;;4.30;86.10;;;;;;5053150;28;20186;-71
2023/04/05 20:22:00;;;;;;;7.07;3.90;;;4.20;86.70;;;;;;5053403;28;20179;-71
2023/04/05 20:24:25;;;;;;;4.37;3.30;;;4.20;85.90;;;;;;5051027;28;20245;-71
2023/04/05 20:26:55;;;;;;;5.50;4.40;;;4.20;86.80;;;;;;5034296;28;20241;-71
2023/04/05 20:29:25;;;;;;;6.37;5.27;;;4.10;88.70;;;;;;5034144;28;20650;-71
2023/04/05 20:31:51;;;;;;;10.13;6.03;;;4.10;89.20;;;;;;5033119;28;20262;-71
2023/04/05 20:34:37;;;;;;;8.07;5.33;;;4.10;90.10;;;;;;5034319;28;20202;-71
2023/04/05 20:37:09;;;;;;;8.77;5.90;;;4.00;90.20;;;;;;5034501;28;20191;-71
2023/04/05 20:39:35;;;;;;;8.13;5.83;;;3.80;90.60;;;;;;5039007;28;20205;-71
2023/04/05 20:42:02;;;;;;;9.17;5.50;;;3.80;90.50;;;;;;5053024;28;20182;-71
2023/04/05 20:44:28;;;;;;;8.80;5.80;;;3.70;90.70;;;;;;5054011;28;20645;-71
2023/04/05 20:46:56;;;;;;;7.03;5.50;;;3.60;91.00;;;;;;5054259;28;20196;-71
2023/04/05 20:49:23;;;;;;;7.57;5.23;;;3.50;91.40;;;;;;5053959;28;20163;-71
2023/04/05 20:51:49;;;;;;;8.13;5.83;;;3.40;91.60;;;;;;5053388;28;20197;-71
2023/04/05 20:54:16;;;;;;;9.30;6.20;;;3.30;91.90;;;;;;5052651;28;20209;-71
2023/04/05 20:56:42;;;;;;;12.27;8.43;;;3.20;92.30;;;;;;5053100;28;20194;-71
2023/04/05 20:59:09;;;;;;;10.40;8.07;;;3.20;91.80;;;;;;5053704;28;20178;-71
2023/04/05 21:01:36;;;;;;;14.83;9.37;;;3.10;90.70;;;;;;5052456;28;20190;-71
2023/04/05 21:04:02;;;;;;;6.73;5.93;;;3.10;91.00;;;;;;5052523;28;20181;-71
2023/04/05 21:06:28;;;;;;;6.33;5.43;;;3.00;90.70;;;;;;5052499;28;20198;-71
2023/04/05 21:08:53;;;;;;;7.37;4.90;;;2.90;90.10;;;;;;5053671;28;20186;-71